sensor_id;sensor_type;location;lat;lon;timestamp;P1;durP1;ratioP1;P2;durP2;ratioP2
49450;SDS011;35336;48.400;10.886;2023-12-20T00:00:08;3.75;;;2.35;;
49450;SDS011;35336;48.400;10.886;2023-12-20T00:00:26;4.30;;;2.43;;
49450;SDS011;35336;48.400;10.886;2023-12-20T00:00:42;3.22;;;2.33;;
49450;SDS011;35336;48.400;10.886;2023-12-20T00:00:57;2.87;;;2.23;;
49450;SDS011;35336;48.400;10.886;2023-12-20T00:01:12;2.37;;;2.00;;
49450;SDS011;35336;48.400;10.886;2023-12-20T00:01:30;3.45;;;2.00;;
49450;SDS011;35336;48.400;10.886;2023-12-20T00:01:45;3.30;;;2.20;;
49450;SDS011;35336;48.400;10.886;2023-12-20T00:02:00;2.77;;;2.27;;
49450;SDS011;35336;48.400;10.886;2023-12-20T00:02:15;2.60;;;2.13;;
49450;SDS011;35336;48.400;10.886;2023-12-20T00:02:33;2.38;;;2.15;;
49450;SDS011;35336;48.400;10.886;2023-12-20T00:02:48;2.50;;;2.30;;
49450;SDS011;35336;48.400;10.886;2023-12-20T00:03:06;2.67;;;2.40;;
49450;SDS011;35336;48.400;10.886;2023-12-20T00:03:21;2.95;;;2.30;;
49450;SDS011;35336;48.400;10.886;2023-12-20T00:03:36;2.93;;;2.30;;
49450;SDS011;35336;48.400;10.886;2023-12-20T00:03:52;2.67;;;2.30;;
49450;SDS011;35336;48.400;10.886;2023-12-20T00:04:09;2.90;;;2.37;;
49450;SDS011;35336;48.400;10.886;2023-12-20T00:04:27;3.13;;;2.38;;
49450;SDS011;35336;48.400;10.886;2023-12-20T00:04:42;2.95;;;2.10;;
49450;SDS011;35336;48.400;10.886;2023-12-20T00:04:58;2.70;;;2.20;;
49450;SDS011;35336;48.400;10.886;2023-12-20T00:05:13;3.73;;;2.67;;
49450;SDS011;35336;48.400;10.886;2023-12-20T00:05:29;3.88;;;2.60;;
49450;SDS011;35336;48.400;10.886;2023-12-20T00:05:44;3.27;;;2.37;;
49450;SDS011;35336;48.400;10.886;2023-12-20T00:06:00;2.75;;;2.28;;
49450;SDS011;35336;48.400;10.886;2023-12-20T00:06:15;2.47;;;2.10;;
49450;SDS011;35336;48.400;10.886;2023-12-20T00:06:31;2.93;;;2.10;;
49450;SDS011;35336;48.400;10.886;2023-12-20T00:06:46;3.93;;;2.10;;
49450;SDS011;35336;48.400;10.886;2023-12-20T00:07:04;3.30;;;2.10;;
49450;SDS011;35336;48.400;10.886;2023-12-20T00:07:19;2.83;;;2.15;;
49450;SDS011;35336;48.400;10.886;2023-12-20T00:07:34;3.60;;;2.50;;
49450;SDS011;35336;48.400;10.886;2023-12-20T00:07:49;2.90;;;2.50;;
49450;SDS011;35336;48.400;10.886;2023-12-20T00:08:05;2.47;;;2.27;;
49450;SDS011;35336;48.400;10.886;2023-12-20T00:08:23;2.88;;;2.40;;
49450;SDS011;35336;48.400;10.886;2023-12-20T00:08:38;3.17;;;2.30;;
49450;SDS011;35336;48.400;10.886;2023-12-20T00:08:53;2.70;;;2.10;;
49450;SDS011;35336;48.400;10.886;2023-12-20T00:09:10;2.30;;;2.10;;
49450;SDS011;35336;48.400;10.886;2023-12-20T00:09:26;2.95;;;2.08;;
49450;SDS011;35336;48.400;10.886;2023-12-20T00:09:41;2.87;;;2.20;;
49450;SDS011;35336;48.400;10.886;2023-12-20T00:09:56;3.08;;;2.13;;
49450;SDS011;35336;48.400;10.886;2023-12-20T00:10:11;3.42;;;2.22;;
49450;SDS011;35336;48.400;10.886;2023-12-20T00:10:27;2.70;;;2.33;;
49450;SDS011;35336;48.400;10.886;2023-12-20T00:10:43;2.50;;;2.13;;
49450;SDS011;35336;48.400;10.886;2023-12-20T00:10:58;2.75;;;2.00;;
49450;SDS011;35336;48.400;10.886;2023-12-20T00:11:14;2.93;;;2.03;;
49450;SDS011;35336;48.400;10.886;2023-12-20T00:11:29;2.80;;;2.20;;
49450;SDS011;35336;48.400;10.886;2023-12-20T00:11:46;3.13;;;2.30;;
49450;SDS011;35336;48.400;10.886;2023-12-20T00:12:02;2.92;;;2.30;;
49450;SDS011;35336;48.400;10.886;2023-12-20T00:12:17;2.30;;;2.10;;
49450;SDS011;35336;48.400;10.886;2023-12-20T00:12:32;2.67;;;2.23;;
49450;SDS011;35336;48.400;10.886;2023-12-20T00:12:48;3.07;;;2.40;;
49450;SDS011;35336;48.400;10.886;2023-12-20T00:13:03;2.67;;;2.10;;
49450;SDS011;35336;48.400;10.886;2023-12-20T00:13:18;2.47;;;2.20;;
49450;SDS011;35336;48.400;10.886;2023-12-20T00:13:33;2.50;;;2.30;;
49450;SDS011;35336;48.400;10.886;2023-12-20T00:13:49;2.37;;;2.13;;
49450;SDS011;35336;48.400;10.886;2023-12-20T00:14:04;3.30;;;2.10;;
49450;SDS011;35336;48.400;10.886;2023-12-20T00:14:21;4.63;;;2.20;;
49450;SDS011;35336;48.400;10.886;2023-12-20T00:14:37;4.33;;;2.20;;
49450;SDS011;35336;48.400;10.886;2023-12-20T00:14:52;3.27;;;2.10;;
49450;SDS011;35336;48.400;10.886;2023-12-20T00:15:07;2.55;;;2.10;;
49450;SDS011;35336;48.400;10.886;2023-12-20T00:15:23;2.40;;;2.10;;
49450;SDS011;35336;48.400;10.886;2023-12-20T00:15:38;2.30;;;2.10;;
49450;SDS011;35336;48.400;10.886;2023-12-20T00:15:56;2.50;;;2.10;;
49450;SDS011;35336;48.400;10.886;2023-12-20T00:16:11;2.50;;;2.10;;
49450;SDS011;35336;48.400;10.886;2023-12-20T00:16:26;2.33;;;2.13;;
49450;SDS011;35336;48.400;10.886;2023-12-20T00:16:41;2.37;;;2.17;;
49450;SDS011;35336;48.400;10.886;2023-12-20T00:16:57;2.55;;;2.05;;
49450;SDS011;35336;48.400;10.886;2023-12-20T00:17:12;2.60;;;2.17;;
49450;SDS011;35336;48.400;10.886;2023-12-20T00:17:27;2.53;;;2.20;;
49450;SDS011;35336;48.400;10.886;2023-12-20T00:17:42;2.17;;;1.93;;
49450;SDS011;35336;48.400;10.886;2023-12-20T00:17:58;2.40;;;2.03;;
49450;SDS011;35336;48.400;10.886;2023-12-20T00:18:13;2.95;;;2.30;;
49450;SDS011;35336;48.400;10.886;2023-12-20T00:18:28;3.07;;;2.30;;
49450;SDS011;35336;48.400;10.886;2023-12-20T00:18:43;3.30;;;2.30;;
49450;SDS011;35336;48.400;10.886;2023-12-20T00:18:59;3.13;;;2.00;;
49450;SDS011;35336;48.400;10.886;2023-12-20T00:19:14;2.80;;;1.93;;
49450;SDS011;35336;48.400;10.886;2023-12-20T00:19:29;4.30;;;2.00;;
49450;SDS011;35336;48.400;10.886;2023-12-20T00:19:44;4.50;;;2.10;;
49450;SDS011;35336;48.400;10.886;2023-12-20T00:20:00;2.80;;;2.20;;
49450;SDS011;35336;48.400;10.886;2023-12-20T00:20:15;3.20;;;2.10;;
49450;SDS011;35336;48.400;10.886;2023-12-20T00:20:30;3.28;;;2.15;;
49450;SDS011;35336;48.400;10.886;2023-12-20T00:20:46;2.63;;;2.10;;
49450;SDS011;35336;48.400;10.886;2023-12-20T00:21:01;2.60;;;2.13;;
49450;SDS011;35336;48.400;10.886;2023-12-20T00:21:16;2.93;;;2.40;;
49450;SDS011;35336;48.400;10.886;2023-12-20T00:21:31;3.20;;;2.43;;
49450;SDS011;35336;48.400;10.886;2023-12-20T00:21:47;2.90;;;2.28;;
49450;SDS011;35336;48.400;10.886;2023-12-20T00:22:02;2.43;;;2.10;;
49450;SDS011;35336;48.400;10.886;2023-12-20T00:22:17;3.17;;;2.13;;
49450;SDS011;35336;48.400;10.886;2023-12-20T00:22:32;3.03;;;2.03;;
49450;SDS011;35336;48.400;10.886;2023-12-20T00:22:48;2.38;;;2.15;;
49450;SDS011;35336;48.400;10.886;2023-12-20T00:23:05;2.43;;;2.07;;
49450;SDS011;35336;48.400;10.886;2023-12-20T00:23:23;2.35;;;1.90;;
49450;SDS011;35336;48.400;10.886;2023-12-20T00:23:38;3.13;;;2.00;;
49450;SDS011;35336;48.400;10.886;2023-12-20T00:23:54;4.53;;;2.10;;
49450;SDS011;35336;48.400;10.886;2023-12-20T00:24:09;3.90;;;2.13;;
49450;SDS011;35336;48.400;10.886;2023-12-20T00:24:24;2.40;;;2.00;;
49450;SDS011;35336;48.400;10.886;2023-12-20T00:24:39;2.37;;;2.17;;
49450;SDS011;35336;48.400;10.886;2023-12-20T00:24:55;2.80;;;2.23;;
49450;SDS011;35336;48.400;10.886;2023-12-20T00:25:10;2.63;;;2.10;;
49450;SDS011;35336;48.400;10.886;2023-12-20T00:25:25;2.17;;;1.92;;
49450;SDS011;35336;48.400;10.886;2023-12-20T00:25:41;2.77;;;1.93;;
49450;SDS011;35336;48.400;10.886;2023-12-20T00:25:56;3.20;;;2.07;;
49450;SDS011;35336;48.400;10.886;2023-12-20T00:26:11;2.40;;;2.00;;
49450;SDS011;35336;48.400;10.886;2023-12-20T00:26:29;2.58;;;2.00;;
49450;SDS011;35336;48.400;10.886;2023-12-20T00:26:44;3.13;;;2.20;;
49450;SDS011;35336;48.400;10.886;2023-12-20T00:26:59;2.83;;;2.17;;
49450;SDS011;35336;48.400;10.886;2023-12-20T00:27:15;2.85;;;1.92;;
49450;SDS011;35336;48.400;10.886;2023-12-20T00:27:30;3.10;;;1.77;;
49450;SDS011;35336;48.400;10.886;2023-12-20T00:27:47;3.00;;;1.83;;
49450;SDS011;35336;48.400;10.886;2023-12-20T00:28:03;3.87;;;2.10;;
49450;SDS011;35336;48.400;10.886;2023-12-20T00:28:18;4.35;;;2.15;;
49450;SDS011;35336;48.400;10.886;2023-12-20T00:28:33;3.70;;;2.00;;
49450;SDS011;35336;48.400;10.886;2023-12-20T00:28:49;2.37;;;1.97;;
49450;SDS011;35336;48.400;10.886;2023-12-20T00:29:04;2.35;;;2.00;;
49450;SDS011;35336;48.400;10.886;2023-12-20T00:29:20;2.27;;;2.00;;
49450;SDS011;35336;48.400;10.886;2023-12-20T00:29:35;2.20;;;2.00;;
49450;SDS011;35336;48.400;10.886;2023-12-20T00:29:50;2.27;;;1.97;;
49450;SDS011;35336;48.400;10.886;2023-12-20T00:30:06;2.60;;;1.90;;
49450;SDS011;35336;48.400;10.886;2023-12-20T00:30:21;2.47;;;1.90;;
49450;SDS011;35336;48.400;10.886;2023-12-20T00:30:37;2.70;;;1.97;;
49450;SDS011;35336;48.400;10.886;2023-12-20T00:30:52;2.93;;;2.10;;
49450;SDS011;35336;48.400;10.886;2023-12-20T00:31:07;2.43;;;2.03;;
49450;SDS011;35336;48.400;10.886;2023-12-20T00:31:22;2.30;;;1.98;;
49450;SDS011;35336;48.400;10.886;2023-12-20T00:31:38;2.47;;;2.00;;
49450;SDS011;35336;48.400;10.886;2023-12-20T00:31:55;2.65;;;2.00;;
49450;SDS011;35336;48.400;10.886;2023-12-20T00:32:11;3.38;;;2.13;;
49450;SDS011;35336;48.400;10.886;2023-12-20T00:32:26;3.30;;;2.20;;
49450;SDS011;35336;48.400;10.886;2023-12-20T00:32:41;2.50;;;2.10;;
49450;SDS011;35336;48.400;10.886;2023-12-20T00:32:56;2.17;;;1.97;;
49450;SDS011;35336;48.400;10.886;2023-12-20T00:33:16;2.70;;;1.80;;
49450;SDS011;35336;48.400;10.886;2023-12-20T00:33:32;2.28;;;1.85;;
49450;SDS011;35336;48.400;10.886;2023-12-20T00:33:47;2.40;;;2.10;;
49450;SDS011;35336;48.400;10.886;2023-12-20T00:34:04;2.65;;;1.90;;
49450;SDS011;35336;48.400;10.886;2023-12-20T00:34:19;2.70;;;1.77;;
49450;SDS011;35336;48.400;10.886;2023-12-20T00:34:35;2.73;;;2.00;;
49450;SDS011;35336;48.400;10.886;2023-12-20T00:34:50;2.87;;;2.10;;
49450;SDS011;35336;48.400;10.886;2023-12-20T00:35:10;3.28;;;1.95;;
49450;SDS011;35336;48.400;10.886;2023-12-20T00:35:26;3.30;;;1.92;;
49450;SDS011;35336;48.400;10.886;2023-12-20T00:35:41;2.87;;;1.90;;
49450;SDS011;35336;48.400;10.886;2023-12-20T00:35:56;2.60;;;1.80;;
49450;SDS011;35336;48.400;10.886;2023-12-20T00:36:12;2.25;;;1.77;;
49450;SDS011;35336;48.400;10.886;2023-12-20T00:36:27;2.60;;;2.00;;
49450;SDS011;35336;48.400;10.886;2023-12-20T00:36:43;3.30;;;2.07;;
49450;SDS011;35336;48.400;10.886;2023-12-20T00:36:58;3.37;;;1.90;;
49450;SDS011;35336;48.400;10.886;2023-12-20T00:37:13;2.70;;;1.80;;
49450;SDS011;35336;48.400;10.886;2023-12-20T00:37:28;2.10;;;1.80;;
49450;SDS011;35336;48.400;10.886;2023-12-20T00:37:44;2.03;;;1.83;;
49450;SDS011;35336;48.400;10.886;2023-12-20T00:37:59;2.30;;;1.83;;
49450;SDS011;35336;48.400;10.886;2023-12-20T00:38:15;3.03;;;2.00;;
49450;SDS011;35336;48.400;10.886;2023-12-20T00:38:30;3.28;;;2.28;;
49450;SDS011;35336;48.400;10.886;2023-12-20T00:38:45;3.03;;;2.20;;
49450;SDS011;35336;48.400;10.886;2023-12-20T00:39:00;2.80;;;2.00;;
49450;SDS011;35336;48.400;10.886;2023-12-20T00:39:16;2.83;;;2.07;;
49450;SDS011;35336;48.400;10.886;2023-12-20T00:39:31;2.58;;;2.10;;
49450;SDS011;35336;48.400;10.886;2023-12-20T00:39:46;2.00;;;1.80;;
49450;SDS011;35336;48.400;10.886;2023-12-20T00:40:01;2.10;;;1.83;;
49450;SDS011;35336;48.400;10.886;2023-12-20T00:40:20;2.07;;;1.80;;
49450;SDS011;35336;48.400;10.886;2023-12-20T00:40:35;2.35;;;2.15;;
49450;SDS011;35336;48.400;10.886;2023-12-20T00:40:50;2.53;;;2.20;;
49450;SDS011;35336;48.400;10.886;2023-12-20T00:41:06;2.53;;;2.10;;
49450;SDS011;35336;48.400;10.886;2023-12-20T00:41:21;2.20;;;2.00;;
49450;SDS011;35336;48.400;10.886;2023-12-20T00:41:36;2.30;;;2.10;;
49450;SDS011;35336;48.400;10.886;2023-12-20T00:41:52;2.63;;;2.05;;
49450;SDS011;35336;48.400;10.886;2023-12-20T00:42:07;3.00;;;2.10;;
49450;SDS011;35336;48.400;10.886;2023-12-20T00:42:22;3.10;;;2.07;;
49450;SDS011;35336;48.400;10.886;2023-12-20T00:42:37;2.50;;;2.00;;
49450;SDS011;35336;48.400;10.886;2023-12-20T00:42:53;2.20;;;2.00;;
49450;SDS011;35336;48.400;10.886;2023-12-20T00:43:08;2.40;;;1.98;;
49450;SDS011;35336;48.400;10.886;2023-12-20T00:43:26;2.50;;;1.90;;
49450;SDS011;35336;48.400;10.886;2023-12-20T00:43:41;2.38;;;2.00;;
49450;SDS011;35336;48.400;10.886;2023-12-20T00:43:56;2.50;;;2.17;;
49450;SDS011;35336;48.400;10.886;2023-12-20T00:44:11;2.80;;;2.10;;
49450;SDS011;35336;48.400;10.886;2023-12-20T00:44:29;2.63;;;1.88;;
49450;SDS011;35336;48.400;10.886;2023-12-20T00:44:44;2.53;;;1.90;;
49450;SDS011;35336;48.400;10.886;2023-12-20T00:45:04;2.72;;;2.00;;
49450;SDS011;35336;48.400;10.886;2023-12-20T00:45:20;3.65;;;2.33;;
49450;SDS011;35336;48.400;10.886;2023-12-20T00:45:37;3.08;;;2.20;;
49450;SDS011;35336;48.400;10.886;2023-12-20T00:45:53;2.23;;;1.93;;
49450;SDS011;35336;48.400;10.886;2023-12-20T00:46:08;2.80;;;2.10;;
49450;SDS011;35336;48.400;10.886;2023-12-20T00:46:26;2.63;;;2.10;;
49450;SDS011;35336;48.400;10.886;2023-12-20T00:46:44;4.35;;;2.10;;
49450;SDS011;35336;48.400;10.886;2023-12-20T00:46:59;5.60;;;2.10;;
49450;SDS011;35336;48.400;10.886;2023-12-20T00:47:16;5.18;;;2.05;;
49450;SDS011;35336;48.400;10.886;2023-12-20T00:47:31;4.40;;;2.10;;
49450;SDS011;35336;48.400;10.886;2023-12-20T00:47:47;3.03;;;2.00;;
49450;SDS011;35336;48.400;10.886;2023-12-20T00:48:02;2.67;;;1.80;;
49450;SDS011;35336;48.400;10.886;2023-12-20T00:48:17;2.73;;;1.80;;
49450;SDS011;35336;48.400;10.886;2023-12-20T00:48:33;2.50;;;1.80;;
49450;SDS011;35336;48.400;10.886;2023-12-20T00:48:48;1.98;;;1.75;;
49450;SDS011;35336;48.400;10.886;2023-12-20T00:49:03;2.30;;;2.00;;
49450;SDS011;35336;48.400;10.886;2023-12-20T00:49:18;2.37;;;2.10;;
49450;SDS011;35336;48.400;10.886;2023-12-20T00:49:34;2.60;;;2.00;;
49450;SDS011;35336;48.400;10.886;2023-12-20T00:49:49;2.80;;;2.10;;
49450;SDS011;35336;48.400;10.886;2023-12-20T00:50:04;2.85;;;2.00;;
49450;SDS011;35336;48.400;10.886;2023-12-20T00:50:20;2.80;;;2.10;;
49450;SDS011;35336;48.400;10.886;2023-12-20T00:50:35;3.20;;;2.00;;
49450;SDS011;35336;48.400;10.886;2023-12-20T00:50:51;2.93;;;1.80;;
49450;SDS011;35336;48.400;10.886;2023-12-20T00:51:06;2.10;;;1.80;;
49450;SDS011;35336;48.400;10.886;2023-12-20T00:51:21;2.13;;;1.93;;
49450;SDS011;35336;48.400;10.886;2023-12-20T00:51:37;2.58;;;2.05;;
49450;SDS011;35336;48.400;10.886;2023-12-20T00:51:52;3.23;;;2.00;;
49450;SDS011;35336;48.400;10.886;2023-12-20T00:52:07;3.10;;;2.00;;
49450;SDS011;35336;48.400;10.886;2023-12-20T00:52:23;2.97;;;2.00;;
49450;SDS011;35336;48.400;10.886;2023-12-20T00:52:38;2.70;;;1.83;;
49450;SDS011;35336;48.400;10.886;2023-12-20T00:52:53;2.73;;;1.97;;
49450;SDS011;35336;48.400;10.886;2023-12-20T00:53:08;3.33;;;2.20;;
49450;SDS011;35336;48.400;10.886;2023-12-20T00:53:24;2.58;;;2.20;;
49450;SDS011;35336;48.400;10.886;2023-12-20T00:53:42;2.22;;;2.03;;
49450;SDS011;35336;48.400;10.886;2023-12-20T00:53:57;2.20;;;2.00;;
49450;SDS011;35336;48.400;10.886;2023-12-20T00:54:12;2.33;;;2.10;;
49450;SDS011;35336;48.400;10.886;2023-12-20T00:54:27;2.70;;;2.10;;
49450;SDS011;35336;48.400;10.886;2023-12-20T00:54:43;2.53;;;2.10;;
49450;SDS011;35336;48.400;10.886;2023-12-20T00:54:58;2.20;;;2.00;;
49450;SDS011;35336;48.400;10.886;2023-12-20T00:55:14;2.20;;;1.90;;
49450;SDS011;35336;48.400;10.886;2023-12-20T00:55:29;2.60;;;2.00;;
49450;SDS011;35336;48.400;10.886;2023-12-20T00:55:45;2.90;;;2.00;;
49450;SDS011;35336;48.400;10.886;2023-12-20T00:56:00;2.97;;;1.90;;
49450;SDS011;35336;48.400;10.886;2023-12-20T00:56:15;2.50;;;1.80;;
49450;SDS011;35336;48.400;10.886;2023-12-20T00:56:31;2.00;;;1.80;;
49450;SDS011;35336;48.400;10.886;2023-12-20T00:56:46;2.10;;;1.90;;
49450;SDS011;35336;48.400;10.886;2023-12-20T00:57:01;2.40;;;1.97;;
49450;SDS011;35336;48.400;10.886;2023-12-20T00:57:16;2.70;;;1.90;;
49450;SDS011;35336;48.400;10.886;2023-12-20T00:57:32;2.67;;;1.90;;
49450;SDS011;35336;48.400;10.886;2023-12-20T00:57:49;2.30;;;1.90;;
49450;SDS011;35336;48.400;10.886;2023-12-20T00:58:05;1.95;;;1.75;;
49450;SDS011;35336;48.400;10.886;2023-12-20T00:58:20;2.80;;;1.73;;
49450;SDS011;35336;48.400;10.886;2023-12-20T00:58:35;2.87;;;1.80;;
49450;SDS011;35336;48.400;10.886;2023-12-20T00:58:50;2.17;;;1.97;;
49450;SDS011;35336;48.400;10.886;2023-12-20T00:59:06;2.10;;;1.90;;
49450;SDS011;35336;48.400;10.886;2023-12-20T00:59:23;2.80;;;1.80;;
49450;SDS011;35336;48.400;10.886;2023-12-20T00:59:41;3.63;;;2.15;;
49450;SDS011;35336;48.400;10.886;2023-12-20T00:59:56;3.37;;;2.20;;
49450;SDS011;35336;48.400;10.886;2023-12-20T01:00:11;2.80;;;1.95;;
49450;SDS011;35336;48.400;10.886;2023-12-20T01:00:27;2.63;;;2.00;;
49450;SDS011;35336;48.400;10.886;2023-12-20T01:00:45;2.60;;;1.98;;
49450;SDS011;35336;48.400;10.886;2023-12-20T01:01:00;2.50;;;1.90;;
49450;SDS011;35336;48.400;10.886;2023-12-20T01:01:15;2.77;;;1.80;;
49450;SDS011;35336;48.400;10.886;2023-12-20T01:01:33;2.33;;;1.70;;
49450;SDS011;35336;48.400;10.886;2023-12-20T01:01:48;2.00;;;1.80;;
49450;SDS011;35336;48.400;10.886;2023-12-20T01:02:03;2.30;;;1.87;;
49450;SDS011;35336;48.400;10.886;2023-12-20T01:02:22;2.30;;;1.85;;
49450;SDS011;35336;48.400;10.886;2023-12-20T01:02:37;2.00;;;1.80;;
49450;SDS011;35336;48.400;10.886;2023-12-20T01:02:52;2.00;;;1.80;;
49450;SDS011;35336;48.400;10.886;2023-12-20T01:03:07;2.30;;;2.00;;
49450;SDS011;35336;48.400;10.886;2023-12-20T01:03:23;2.13;;;1.93;;
49450;SDS011;35336;48.400;10.886;2023-12-20T01:03:38;2.10;;;1.90;;
49450;SDS011;35336;48.400;10.886;2023-12-20T01:03:53;2.17;;;1.90;;
49450;SDS011;35336;48.400;10.886;2023-12-20T01:04:08;2.30;;;1.90;;
49450;SDS011;35336;48.400;10.886;2023-12-20T01:04:24;2.10;;;1.83;;
49450;SDS011;35336;48.400;10.886;2023-12-20T01:04:41;2.13;;;1.67;;
49450;SDS011;35336;48.400;10.886;2023-12-20T01:04:56;2.73;;;1.70;;
49450;SDS011;35336;48.400;10.886;2023-12-20T01:05:12;2.77;;;1.80;;
49450;SDS011;35336;48.400;10.886;2023-12-20T01:05:27;2.13;;;1.80;;
49450;SDS011;35336;48.400;10.886;2023-12-20T01:05:42;2.13;;;1.92;;
49450;SDS011;35336;48.400;10.886;2023-12-20T01:05:57;2.93;;;2.10;;
49450;SDS011;35336;48.400;10.886;2023-12-20T01:06:13;2.53;;;1.83;;
49450;SDS011;35336;48.400;10.886;2023-12-20T01:06:33;1.92;;;1.70;;
49450;SDS011;35336;48.400;10.886;2023-12-20T01:06:48;2.10;;;1.90;;
49450;SDS011;35336;48.400;10.886;2023-12-20T01:07:03;2.80;;;1.90;;
49450;SDS011;35336;48.400;10.886;2023-12-20T01:07:19;2.88;;;1.92;;
49450;SDS011;35336;48.400;10.886;2023-12-20T01:07:34;2.53;;;1.87;;
49450;SDS011;35336;48.400;10.886;2023-12-20T01:07:49;2.57;;;1.80;;
49450;SDS011;35336;48.400;10.886;2023-12-20T01:08:05;2.37;;;2.00;;
49450;SDS011;35336;48.400;10.886;2023-12-20T01:08:20;2.90;;;2.10;;
49450;SDS011;35336;48.400;10.886;2023-12-20T01:08:35;2.50;;;1.80;;
49450;SDS011;35336;48.400;10.886;2023-12-20T01:08:52;2.00;;;1.80;;
49450;SDS011;35336;48.400;10.886;2023-12-20T01:09:07;2.17;;;1.80;;
49450;SDS011;35336;48.400;10.886;2023-12-20T01:09:23;1.93;;;1.70;;
49450;SDS011;35336;48.400;10.886;2023-12-20T01:09:38;1.73;;;1.60;;
49450;SDS011;35336;48.400;10.886;2023-12-20T01:09:55;2.88;;;1.80;;
49450;SDS011;35336;48.400;10.886;2023-12-20T01:10:11;2.50;;;1.83;;
49450;SDS011;35336;48.400;10.886;2023-12-20T01:10:28;2.30;;;1.80;;
49450;SDS011;35336;48.400;10.886;2023-12-20T01:10:44;2.30;;;1.80;;
49450;SDS011;35336;48.400;10.886;2023-12-20T01:10:59;2.40;;;2.00;;
49450;SDS011;35336;48.400;10.886;2023-12-20T01:11:14;2.15;;;1.95;;
49450;SDS011;35336;48.400;10.886;2023-12-20T01:11:29;2.10;;;1.90;;
49450;SDS011;35336;48.400;10.886;2023-12-20T01:11:45;2.47;;;1.83;;
49450;SDS011;35336;48.400;10.886;2023-12-20T01:12:00;2.10;;;1.70;;
49450;SDS011;35336;48.400;10.886;2023-12-20T01:12:15;2.47;;;1.70;;
49450;SDS011;35336;48.400;10.886;2023-12-20T01:12:30;2.85;;;1.90;;
49450;SDS011;35336;48.400;10.886;2023-12-20T01:12:46;2.20;;;1.90;;
49450;SDS011;35336;48.400;10.886;2023-12-20T01:13:01;1.77;;;1.67;;
49450;SDS011;35336;48.400;10.886;2023-12-20T01:13:16;2.10;;;1.70;;
49450;SDS011;35336;48.400;10.886;2023-12-20T01:13:34;2.60;;;1.80;;
49450;SDS011;35336;48.400;10.886;2023-12-20T01:13:50;2.30;;;1.70;;
49450;SDS011;35336;48.400;10.886;2023-12-20T01:14:05;2.22;;;1.75;;
49450;SDS011;35336;48.400;10.886;2023-12-20T01:14:20;2.57;;;1.80;;
49450;SDS011;35336;48.400;10.886;2023-12-20T01:14:35;2.83;;;1.90;;
49450;SDS011;35336;48.400;10.886;2023-12-20T01:14:51;2.73;;;2.00;;
49450;SDS011;35336;48.400;10.886;2023-12-20T01:15:06;3.23;;;1.90;;
49450;SDS011;35336;48.400;10.886;2023-12-20T01:15:21;3.25;;;1.77;;
49450;SDS011;35336;48.400;10.886;2023-12-20T01:15:37;2.53;;;1.70;;
49450;SDS011;35336;48.400;10.886;2023-12-20T01:15:54;2.33;;;1.90;;
49450;SDS011;35336;48.400;10.886;2023-12-20T01:16:12;2.63;;;2.05;;
49450;SDS011;35336;48.400;10.886;2023-12-20T01:16:27;3.03;;;1.93;;
49450;SDS011;35336;48.400;10.886;2023-12-20T01:16:42;2.63;;;1.90;;
49450;SDS011;35336;48.400;10.886;2023-12-20T01:17:00;2.17;;;1.97;;
49450;SDS011;35336;48.400;10.886;2023-12-20T01:17:16;2.63;;;1.80;;
49450;SDS011;35336;48.400;10.886;2023-12-20T01:17:31;2.93;;;1.70;;
49450;SDS011;35336;48.400;10.886;2023-12-20T01:17:50;2.30;;;1.88;;
49450;SDS011;35336;48.400;10.886;2023-12-20T01:18:05;2.00;;;1.80;;
49450;SDS011;35336;48.400;10.886;2023-12-20T01:18:23;3.27;;;1.87;;
49450;SDS011;35336;48.400;10.886;2023-12-20T01:18:42;3.47;;;2.00;;
49450;SDS011;35336;48.400;10.886;2023-12-20T01:19:00;2.22;;;1.83;;
49450;SDS011;35336;48.400;10.886;2023-12-20T01:19:15;1.97;;;1.80;;
49450;SDS011;35336;48.400;10.886;2023-12-20T01:19:30;2.10;;;1.90;;
49450;SDS011;35336;48.400;10.886;2023-12-20T01:19:46;2.10;;;1.80;;
49450;SDS011;35336;48.400;10.886;2023-12-20T01:20:04;2.72;;;1.83;;
49450;SDS011;35336;48.400;10.886;2023-12-20T01:20:19;2.78;;;1.85;;
49450;SDS011;35336;48.400;10.886;2023-12-20T01:20:34;2.77;;;1.80;;
49450;SDS011;35336;48.400;10.886;2023-12-20T01:20:50;2.70;;;1.90;;
49450;SDS011;35336;48.400;10.886;2023-12-20T01:21:05;2.80;;;1.80;;
49450;SDS011;35336;48.400;10.886;2023-12-20T01:21:23;2.72;;;1.70;;
49450;SDS011;35336;48.400;10.886;2023-12-20T01:21:39;2.22;;;1.67;;
49450;SDS011;35336;48.400;10.886;2023-12-20T01:21:54;2.05;;;1.58;;
49450;SDS011;35336;48.400;10.886;2023-12-20T01:22:10;1.70;;;1.60;;
49450;SDS011;35336;48.400;10.886;2023-12-20T01:22:25;2.07;;;1.70;;
49450;SDS011;35336;48.400;10.886;2023-12-20T01:22:40;2.53;;;1.63;;
49450;SDS011;35336;48.400;10.886;2023-12-20T01:22:56;2.22;;;1.67;;
49450;SDS011;35336;48.400;10.886;2023-12-20T01:23:11;2.37;;;1.80;;
49450;SDS011;35336;48.400;10.886;2023-12-20T01:23:26;2.90;;;1.90;;
49450;SDS011;35336;48.400;10.886;2023-12-20T01:23:46;3.20;;;1.90;;
49450;SDS011;35336;48.400;10.886;2023-12-20T01:24:04;2.03;;;1.70;;
49450;SDS011;35336;48.400;10.886;2023-12-20T01:24:22;2.30;;;1.58;;
49450;SDS011;35336;48.400;10.886;2023-12-20T01:24:37;2.10;;;1.70;;
49450;SDS011;35336;48.400;10.886;2023-12-20T01:24:52;2.63;;;1.90;;
49450;SDS011;35336;48.400;10.886;2023-12-20T01:25:07;3.43;;;1.90;;
49450;SDS011;35336;48.400;10.886;2023-12-20T01:25:23;2.90;;;1.80;;
49450;SDS011;35336;48.400;10.886;2023-12-20T01:25:38;2.55;;;1.80;;
49450;SDS011;35336;48.400;10.886;2023-12-20T01:25:54;2.73;;;1.80;;
49450;SDS011;35336;48.400;10.886;2023-12-20T01:26:10;2.88;;;1.83;;
49450;SDS011;35336;48.400;10.886;2023-12-20T01:26:27;2.20;;;1.70;;
49450;SDS011;35336;48.400;10.886;2023-12-20T01:26:42;2.20;;;1.70;;
49450;SDS011;35336;48.400;10.886;2023-12-20T01:26:58;2.80;;;1.80;;
49450;SDS011;35336;48.400;10.886;2023-12-20T01:27:15;2.30;;;1.77;;
49450;SDS011;35336;48.400;10.886;2023-12-20T01:27:30;1.90;;;1.65;;
49450;SDS011;35336;48.400;10.886;2023-12-20T01:27:46;2.35;;;1.90;;
49450;SDS011;35336;48.400;10.886;2023-12-20T01:28:01;2.60;;;1.87;;
49450;SDS011;35336;48.400;10.886;2023-12-20T01:28:19;2.08;;;1.60;;
49450;SDS011;35336;48.400;10.886;2023-12-20T01:28:34;2.10;;;1.60;;
49450;SDS011;35336;48.400;10.886;2023-12-20T01:28:49;2.07;;;1.70;;
49450;SDS011;35336;48.400;10.886;2023-12-20T01:29:05;2.53;;;1.77;;
49450;SDS011;35336;48.400;10.886;2023-12-20T01:29:20;2.75;;;1.88;;
49450;SDS011;35336;48.400;10.886;2023-12-20T01:29:35;2.95;;;2.00;;
49450;SDS011;35336;48.400;10.886;2023-12-20T01:29:52;2.83;;;1.90;;
49450;SDS011;35336;48.400;10.886;2023-12-20T01:30:08;2.00;;;1.80;;
49450;SDS011;35336;48.400;10.886;2023-12-20T01:30:23;1.90;;;1.70;;
49450;SDS011;35336;48.400;10.886;2023-12-20T01:30:38;2.23;;;1.70;;
49450;SDS011;35336;48.400;10.886;2023-12-20T01:30:54;2.83;;;1.93;;
49450;SDS011;35336;48.400;10.886;2023-12-20T01:31:11;3.47;;;2.03;;
49450;SDS011;35336;48.400;10.886;2023-12-20T01:31:26;2.60;;;1.83;;
49450;SDS011;35336;48.400;10.886;2023-12-20T01:31:42;2.33;;;1.80;;
49450;SDS011;35336;48.400;10.886;2023-12-20T01:31:57;2.80;;;1.80;;
49450;SDS011;35336;48.400;10.886;2023-12-20T01:32:12;2.13;;;1.70;;
49450;SDS011;35336;48.400;10.886;2023-12-20T01:32:27;1.90;;;1.77;;
49450;SDS011;35336;48.400;10.886;2023-12-20T01:32:43;2.37;;;1.93;;
49450;SDS011;35336;48.400;10.886;2023-12-20T01:32:59;2.53;;;1.87;;
49450;SDS011;35336;48.400;10.886;2023-12-20T01:33:15;2.20;;;1.80;;